createdAt,value
2023-03-21T00:01:04.826Z,13.07
2023-03-21T00:03:33.553Z,11.97
2023-03-21T00:06:01.257Z,10.57
2023-03-21T00:08:28.687Z,13.07
2023-03-21T00:10:56.688Z,11.03
2023-03-21T00:13:24.092Z,10.83
2023-03-21T00:16:05.636Z,12.37
2023-03-21T00:18:41.917Z,11.30
2023-03-21T00:21:39.219Z,14.17
2023-03-21T00:23:58.544Z,14.07
2023-03-21T00:26:25.910Z,14.40
2023-03-21T00:28:53.372Z,14.57
2023-03-21T00:31:21.383Z,13.07
2023-03-21T00:33:51.778Z,15.30
2023-03-21T00:36:19.336Z,14.67
2023-03-21T00:38:46.951Z,13.60
2023-03-21T00:41:25.823Z,15.73
2023-03-21T00:43:55.469Z,14.77
2023-03-21T00:46:25.217Z,15.47
2023-03-21T00:48:54.078Z,18.43
2023-03-21T00:51:26.278Z,13.10
2023-03-21T00:53:54.795Z,13.83
2023-03-21T00:56:22.512Z,15.30
2023-03-21T00:58:51.135Z,14.37
2023-03-21T01:01:18.538Z,14.47
2023-03-21T01:03:51.170Z,15.37
2023-03-21T01:06:20.502Z,14.83
2023-03-21T01:08:52.799Z,12.53
2023-03-21T01:11:22.541Z,12.13
2023-03-21T01:14:20.962Z,14.13
2023-03-21T01:16:37.511Z,14.07
2023-03-21T01:19:09.435Z,14.70
2023-03-21T01:21:43.676Z,10.93
2023-03-21T01:24:11.792Z,13.10
2023-03-21T01:26:39.168Z,14.27
2023-03-21T01:29:07.055Z,12.50
2023-03-21T01:31:34.559Z,14.57
2023-03-21T01:34:02.062Z,13.33
2023-03-21T01:36:29.461Z,12.10
2023-03-21T01:39:03.680Z,13.60
2023-03-21T01:41:47.486Z,11.67
2023-03-21T01:44:24.313Z,14.87
2023-03-21T01:47:09.297Z,12.37
2023-03-21T01:49:46.882Z,13.00
2023-03-21T01:52:33.388Z,15.10
2023-03-21T01:55:06.993Z,12.23
2023-03-21T01:57:55.234Z,13.03
2023-03-21T02:00:32.741Z,12.83
2023-03-21T02:03:26.318Z,11.00
2023-03-21T02:06:12.233Z,12.80
2023-03-21T02:08:42.612Z,10.77
2023-03-21T02:11:16.441Z,12.23
2023-03-21T02:13:44.447Z,12.50
2023-03-21T02:16:18.229Z,12.20
2023-03-21T02:18:50.627Z,12.00
2023-03-21T02:21:25.746Z,11.73
2023-03-21T02:24:08.717Z,14.33
2023-03-21T02:27:03.394Z,12.73
2023-03-21T02:29:50.174Z,10.47
2023-03-21T02:32:36.542Z,15.10
2023-03-21T02:35:16.559Z,12.27
2023-03-21T02:37:55.200Z,11.13
2023-03-21T02:40:31.176Z,10.93
2023-03-21T02:43:03.080Z,11.53
2023-03-21T02:45:37.335Z,11.77
2023-03-21T02:48:10.086Z,11.40
2023-03-21T02:50:41.820Z,14.87
2023-03-21T02:53:12.216Z,14.97
2023-03-21T02:55:42.369Z,12.50
2023-03-21T02:58:13.477Z,9.17
2023-03-21T03:00:50.378Z,11.17
2023-03-21T03:03:34.322Z,11.70
2023-03-21T03:06:06.390Z,13.50
2023-03-21T03:08:53.047Z,14.47
2023-03-21T03:11:29.403Z,11.80
2023-03-21T03:14:43.894Z,11.57
2023-03-21T03:17:18.103Z,12.37
2023-03-21T03:19:51.524Z,11.80
2023-03-21T03:22:24.426Z,13.50
2023-03-21T03:24:57.135Z,12.03
2023-03-21T03:27:26.978Z,13.17
2023-03-21T03:29:54.730Z,11.53
2023-03-21T03:32:30.350Z,10.83
2023-03-21T03:34:58.839Z,10.67
2023-03-21T03:37:34.214Z,11.60
2023-03-21T03:40:06.503Z,10.83
2023-03-21T03:42:39.368Z,8.97
2023-03-21T03:45:20.827Z,7.27
2023-03-21T03:47:57.174Z,11.60
2023-03-21T03:50:30.869Z,9.13
2023-03-21T03:53:07.091Z,11.03
2023-03-21T03:55:38.922Z,8.20
2023-03-21T03:58:22.838Z,8.17
2023-03-21T04:00:52.995Z,7.00
2023-03-21T04:03:20.678Z,8.83
2023-03-21T04:05:49.054Z,7.90
2023-03-21T04:08:17.654Z,7.97
2023-03-21T04:10:51.801Z,6.23
2023-03-21T04:13:20.194Z,8.20
2023-03-21T04:16:01.320Z,5.63
2023-03-21T04:18:28.777Z,8.37
2023-03-21T04:20:56.406Z,7.23
2023-03-21T04:23:29.216Z,6.43
2023-03-21T04:25:57.940Z,9.73
2023-03-21T04:28:36.127Z,6.20
2023-03-21T04:31:26.425Z,8.00
2023-03-21T04:34:03.449Z,6.57
2023-03-21T04:36:38.823Z,7.17
2023-03-21T04:39:12.197Z,6.50
2023-03-21T04:41:41.600Z,6.30
2023-03-21T04:44:09.708Z,7.50
2023-03-21T04:46:38.258Z,6.67
2023-03-21T04:49:07.676Z,6.83
2023-03-21T04:51:35.796Z,10.63
2023-03-21T04:54:05.817Z,9.70
2023-03-21T04:56:34.047Z,10.00
2023-03-21T04:59:04.047Z,7.93
2023-03-21T05:01:31.583Z,11.27
2023-03-21T05:03:59.257Z,5.50
2023-03-21T05:06:27.743Z,6.17
2023-03-21T05:08:56.739Z,10.07
2023-03-21T05:11:24.120Z,5.67
2023-03-21T05:13:51.508Z,8.03
2023-03-21T05:16:20.321Z,8.10
2023-03-21T05:18:50.600Z,12.50
2023-03-21T05:21:20.405Z,9.70
2023-03-21T05:23:54.256Z,7.20
2023-03-21T05:26:22.701Z,7.67
2023-03-21T05:29:00.005Z,10.27
2023-03-21T05:31:28.851Z,12.60
2023-03-21T05:34:06.188Z,8.87
2023-03-21T05:36:35.988Z,12.10
2023-03-21T05:39:06.350Z,10.30
2023-03-21T05:41:37.156Z,7.83
2023-03-21T05:44:05.923Z,9.77
2023-03-21T05:46:34.689Z,11.20
2023-03-21T05:49:02.754Z,11.17
2023-03-21T05:51:30.308Z,9.37
2023-03-21T05:53:57.742Z,9.00
2023-03-21T05:56:26.017Z,11.60
2023-03-21T05:58:57.805Z,11.50
2023-03-21T06:01:25.856Z,9.73
2023-03-21T06:04:03.323Z,8.50
2023-03-21T06:06:30.792Z,7.33
2023-03-21T06:09:01.778Z,9.40
2023-03-21T06:11:31.741Z,8.23
2023-03-21T06:14:18.512Z,11.33
2023-03-21T06:16:51.066Z,11.57
2023-03-21T06:19:19.870Z,8.60
2023-03-21T06:22:03.439Z,8.40
2023-03-21T06:24:32.493Z,8.40
2023-03-21T06:27:02.808Z,7.73
2023-03-21T06:29:39.856Z,6.03
2023-03-21T06:32:08.368Z,7.93
2023-03-21T06:34:39.304Z,7.40
2023-03-21T06:37:06.962Z,6.67
2023-03-21T06:39:35.569Z,6.70
2023-03-21T06:42:03.230Z,8.23
2023-03-21T06:44:30.961Z,9.63
2023-03-21T06:47:03.493Z,7.30
2023-03-21T06:49:31.367Z,10.93
2023-03-21T06:52:07.358Z,9.43
2023-03-21T06:54:36.089Z,10.10
2023-03-21T06:57:10.413Z,9.83
2023-03-21T06:59:41.521Z,8.53
2023-03-21T07:02:11.396Z,8.43
2023-03-21T07:04:45.311Z,10.07
2023-03-21T07:07:19.432Z,9.33
2023-03-21T07:09:47.466Z,8.13
2023-03-21T07:12:16.000Z,8.73
2023-03-21T07:15:04.289Z,11.00
2023-03-21T07:17:34.121Z,7.57
2023-03-21T07:20:01.501Z,8.30
2023-03-21T07:22:30.785Z,8.83
2023-03-21T07:25:04.716Z,9.00
2023-03-21T07:27:40.799Z,9.20
2023-03-21T07:30:09.671Z,9.17
2023-03-21T07:32:37.957Z,9.23
2023-03-21T07:35:06.927Z,10.63
2023-03-21T07:37:37.825Z,9.87
2023-03-21T07:40:10.441Z,10.73
2023-03-21T07:42:39.121Z,13.10
2023-03-21T07:45:07.764Z,12.57
2023-03-21T07:47:35.460Z,10.97
2023-03-21T07:50:04.400Z,11.20
2023-03-21T07:52:32.260Z,9.83
2023-03-21T07:55:00.938Z,9.00
2023-03-21T07:57:28.294Z,7.73
2023-03-21T07:59:55.620Z,7.70
2023-03-21T08:02:23.053Z,8.83
2023-03-21T08:04:50.520Z,9.33
2023-03-21T08:07:17.887Z,8.57
2023-03-21T08:09:45.354Z,7.37
2023-03-21T08:12:14.181Z,8.13
2023-03-21T08:14:41.521Z,7.37
2023-03-21T08:17:09.479Z,8.40
2023-03-21T08:19:37.401Z,7.17
2023-03-21T08:22:06.870Z,7.23
2023-03-21T08:24:34.786Z,7.50
2023-03-21T08:27:02.346Z,7.83
2023-03-21T08:29:31.114Z,8.67
2023-03-21T08:31:58.989Z,8.30
2023-03-21T08:34:26.663Z,6.20
2023-03-21T08:36:54.498Z,5.27
2023-03-21T08:39:22.459Z,4.87
2023-03-21T08:41:49.845Z,6.50
2023-03-21T08:44:17.871Z,8.83
2023-03-21T08:46:46.568Z,7.63
2023-03-21T08:49:13.937Z,8.23
2023-03-21T08:51:41.312Z,6.40
2023-03-21T08:54:08.689Z,7.63
2023-03-21T08:56:37.472Z,6.67
2023-03-21T08:59:04.972Z,6.30
2023-03-21T09:01:32.468Z,7.40
2023-03-21T09:04:01.151Z,7.63
2023-03-21T09:06:29.948Z,7.07
2023-03-21T09:08:57.293Z,6.23
2023-03-21T09:11:24.624Z,7.80
2023-03-21T09:13:52.478Z,5.23
2023-03-21T09:16:19.990Z,6.20
2023-03-21T09:18:49.471Z,6.37
2023-03-21T09:21:21.018Z,6.80
2023-03-21T09:23:48.730Z,6.97
2023-03-21T09:26:16.164Z,8.27
2023-03-21T09:28:43.669Z,5.57
2023-03-21T09:31:12.160Z,6.83
2023-03-21T09:33:41.313Z,6.50
2023-03-21T09:36:14.446Z,4.33
2023-03-21T09:38:45.525Z,4.37
2023-03-21T09:41:21.576Z,5.87
2023-03-21T09:43:58.814Z,4.97
2023-03-21T09:46:31.748Z,6.97
2023-03-21T09:49:00.955Z,4.63
2023-03-21T09:51:30.194Z,5.30
2023-03-21T09:54:00.575Z,3.47
2023-03-21T09:56:28.036Z,3.80
2023-03-21T09:58:56.769Z,3.67
2023-03-21T10:01:29.778Z,6.30
2023-03-21T10:03:58.905Z,4.77
2023-03-21T10:06:30.597Z,4.70
2023-03-21T10:09:01.378Z,8.17
2023-03-21T10:11:30.171Z,5.47
2023-03-21T10:14:00.190Z,4.63
2023-03-21T10:16:29.453Z,5.17
2023-03-21T10:18:57.009Z,3.93
2023-03-21T10:21:51.440Z,4.27
2023-03-21T10:24:16.097Z,3.40
2023-03-21T10:26:43.901Z,2.43
2023-03-21T10:29:13.806Z,3.73
2023-03-21T10:31:42.859Z,3.70
2023-03-21T10:34:13.659Z,3.60
2023-03-21T10:36:41.000Z,3.37
2023-03-21T10:39:12.491Z,5.50
2023-03-21T10:41:41.399Z,3.03
2023-03-21T10:44:10.724Z,2.60
2023-03-21T10:46:38.431Z,4.03
2023-03-21T10:49:08.155Z,3.60
2023-03-21T10:51:37.542Z,2.63
2023-03-21T10:54:06.389Z,3.37
2023-03-21T10:56:37.252Z,4.23
2023-03-21T10:59:06.499Z,2.47
2023-03-21T11:01:36.388Z,2.70
2023-03-21T11:04:07.714Z,2.33
2023-03-21T11:06:38.569Z,3.60
2023-03-21T11:09:08.514Z,2.83
2023-03-21T11:11:38.140Z,2.50
2023-03-21T11:14:09.183Z,3.63
2023-03-21T11:16:40.808Z,2.43
2023-03-21T11:19:15.332Z,2.80
2023-03-21T11:21:42.822Z,3.27
2023-03-21T11:24:14.758Z,3.20
2023-03-21T11:26:44.463Z,2.70
2023-03-21T11:29:24.089Z,2.87
2023-03-21T11:31:52.116Z,2.47
2023-03-21T11:34:27.022Z,3.10
2023-03-21T11:36:58.901Z,2.30
2023-03-21T11:39:31.027Z,2.30
2023-03-21T11:41:58.647Z,2.93
2023-03-21T11:44:28.793Z,2.30
2023-03-21T11:46:56.326Z,3.23
2023-03-21T11:49:24.725Z,2.73
2023-03-21T11:51:57.256Z,2.00
2023-03-21T11:54:28.158Z,2.53
2023-03-21T11:56:57.626Z,4.50
2023-03-21T11:59:32.698Z,2.33
2023-03-21T12:02:12.181Z,2.30
2023-03-21T12:04:41.701Z,2.07
2023-03-21T12:07:20.042Z,3.50
2023-03-21T12:09:51.306Z,1.87
2023-03-21T12:12:36.539Z,4.90
2023-03-21T12:15:11.524Z,3.33
2023-03-21T12:17:44.241Z,2.70
2023-03-21T12:20:29.997Z,1.70
2023-03-21T12:23:04.970Z,2.13
2023-03-21T12:25:34.086Z,3.83
2023-03-21T12:28:06.610Z,2.00
2023-03-21T12:30:42.814Z,1.70
2023-03-21T12:33:15.630Z,2.00
2023-03-21T12:35:48.410Z,1.50
2023-03-21T12:38:17.565Z,1.53
2023-03-21T12:40:49.327Z,1.80
2023-03-21T12:43:25.318Z,2.77
2023-03-21T12:45:55.776Z,2.87
2023-03-21T12:48:25.563Z,3.27
2023-03-21T12:50:55.310Z,2.47
2023-03-21T12:53:35.563Z,1.67
2023-03-21T12:56:06.082Z,2.70
2023-03-21T12:58:38.562Z,4.27
2023-03-21T13:01:08.522Z,4.63
2023-03-21T13:03:40.496Z,1.67
2023-03-21T13:06:10.244Z,1.53
2023-03-21T13:08:38.612Z,1.60
2023-03-21T13:11:06.618Z,1.13
2023-03-21T13:13:35.957Z,1.70
2023-03-21T13:16:05.854Z,1.43
2023-03-21T13:18:41.077Z,2.20
2023-03-21T13:21:13.444Z,1.33
2023-03-21T13:23:40.956Z,2.10
2023-03-21T13:26:11.156Z,1.33
2023-03-21T13:28:40.159Z,1.57
2023-03-21T13:31:18.500Z,1.30
2023-03-21T13:33:48.246Z,1.63
2023-03-21T13:36:16.498Z,5.23
2023-03-21T13:38:50.668Z,0.60
2023-03-21T13:41:19.740Z,2.23
2023-03-21T13:43:52.845Z,2.60
2023-03-21T13:46:50.356Z,2.10
2023-03-21T13:49:28.069Z,2.50
2023-03-21T13:51:56.182Z,0.67
2023-03-21T13:54:27.373Z,1.50
2023-03-21T13:56:57.762Z,1.60
2023-03-21T13:59:40.104Z,0.77
2023-03-21T14:02:22.315Z,2.30
2023-03-21T14:05:04.895Z,1.70
2023-03-21T14:07:34.478Z,0.63
2023-03-21T14:10:05.026Z,1.93
2023-03-21T14:12:37.968Z,2.03
2023-03-21T14:15:16.376Z,1.87
2023-03-21T14:17:50.694Z,0.97
2023-03-21T14:20:21.555Z,1.10
2023-03-21T14:22:50.143Z,1.17
2023-03-21T14:25:21.084Z,1.90
2023-03-21T14:27:50.291Z,0.73
2023-03-21T14:30:23.709Z,0.90
2023-03-21T14:32:54.470Z,0.93
2023-03-21T14:35:23.286Z,1.93
2023-03-21T14:37:51.372Z,1.40
2023-03-21T14:40:21.556Z,1.37
2023-03-21T14:42:50.559Z,0.60
2023-03-21T14:45:20.848Z,0.87
2023-03-21T14:47:59.031Z,0.93
2023-03-21T14:50:30.201Z,1.10
2023-03-21T14:52:58.247Z,1.00
2023-03-21T14:55:26.221Z,2.30
2023-03-21T14:57:55.461Z,2.00
2023-03-21T15:00:27.251Z,1.90
2023-03-21T15:02:55.330Z,1.30
2023-03-21T15:05:25.544Z,1.10
2023-03-21T15:07:58.376Z,1.27
2023-03-21T15:10:28.923Z,6.40
2023-03-21T15:12:57.129Z,3.47
2023-03-21T15:15:27.432Z,2.13
2023-03-21T15:17:56.412Z,2.57
2023-03-21T15:20:26.173Z,1.90
2023-03-21T15:22:56.349Z,1.63
2023-03-21T15:25:26.825Z,1.37
2023-03-21T15:27:55.911Z,1.60
2023-03-21T15:30:24.835Z,1.87
2023-03-21T15:32:52.431Z,3.53
2023-03-21T15:35:22.054Z,2.73
2023-03-21T15:37:56.649Z,2.70
2023-03-21T15:40:25.137Z,1.10
2023-03-21T15:42:52.793Z,1.20
2023-03-21T15:45:22.361Z,0.93
2023-03-21T15:47:54.386Z,1.07
2023-03-21T15:50:29.772Z,1.83
2023-03-21T15:53:00.231Z,1.30
2023-03-21T15:55:29.534Z,2.17
2023-03-21T15:58:00.914Z,1.30
2023-03-21T16:00:35.780Z,2.13
2023-03-21T16:03:06.417Z,1.20
2023-03-21T16:05:34.737Z,1.63
2023-03-21T16:08:06.880Z,1.23
2023-03-21T16:10:36.695Z,1.90
2023-03-21T16:13:04.934Z,2.30
2023-03-21T16:15:32.614Z,1.97
2023-03-21T16:18:00.997Z,6.70
2023-03-21T16:20:29.481Z,3.10
2023-03-21T16:22:57.092Z,1.23
2023-03-21T16:25:26.045Z,1.43
2023-03-21T16:27:53.400Z,1.63
2023-03-21T16:30:22.063Z,1.73
2023-03-21T16:32:49.874Z,1.60
2023-03-21T16:35:17.895Z,1.60
2023-03-21T16:37:45.482Z,1.50
2023-03-21T16:40:16.930Z,4.37
2023-03-21T16:42:45.893Z,5.80
2023-03-21T16:45:13.312Z,4.37
2023-03-21T16:47:40.895Z,2.97
2023-03-21T16:50:19.989Z,3.20
2023-03-21T16:52:47.607Z,1.87
2023-03-21T16:55:15.343Z,1.70
2023-03-21T16:57:43.068Z,1.87
2023-03-21T17:00:14.003Z,2.50
2023-03-21T17:02:41.560Z,2.20
2023-03-21T17:05:11.461Z,2.17
2023-03-21T17:07:38.924Z,1.40
2023-03-21T17:10:11.130Z,2.43
2023-03-21T17:12:38.534Z,2.70
2023-03-21T17:15:06.362Z,2.37
2023-03-21T17:17:35.083Z,3.23
2023-03-21T17:20:04.086Z,2.33
2023-03-21T17:22:31.485Z,2.23
2023-03-21T17:24:58.979Z,1.30
2023-03-21T17:27:27.077Z,2.03
2023-03-21T17:29:54.953Z,1.70
2023-03-21T17:32:22.600Z,1.20
2023-03-21T17:34:53.140Z,2.30
2023-03-21T17:37:21.909Z,2.63
2023-03-21T17:39:49.578Z,4.93
2023-03-21T17:42:18.205Z,4.67
2023-03-21T17:44:45.739Z,2.13
2023-03-21T17:47:13.273Z,4.80
2023-03-21T17:49:41.200Z,5.30
2023-03-21T17:52:09.890Z,8.90
2023-03-21T17:54:37.523Z,6.70
2023-03-21T17:57:04.898Z,5.97
2023-03-21T17:59:32.223Z,5.60
2023-03-21T18:01:59.608Z,13.10
2023-03-21T18:04:27.068Z,8.33
2023-03-21T18:06:57.376Z,7.97
2023-03-21T18:09:26.691Z,5.03
2023-03-21T18:11:54.164Z,3.27
2023-03-21T18:14:27.963Z,6.97
2023-03-21T18:16:56.169Z,8.37
2023-03-21T18:19:23.800Z,6.23
2023-03-21T18:21:52.519Z,7.57
2023-03-21T18:24:19.860Z,5.93
2023-03-21T18:26:48.723Z,4.90
2023-03-21T18:30:17.876Z,4.50
2023-03-21T18:32:08.265Z,3.07
2023-03-21T18:34:38.090Z,4.07
2023-03-21T18:37:07.548Z,2.67
2023-03-21T18:39:35.261Z,4.47
2023-03-21T18:42:05.280Z,3.17
2023-03-21T18:44:37.489Z,4.47
2023-03-21T18:47:06.433Z,5.87
2023-03-21T18:52:22.198Z,5.70
2023-03-21T18:54:49.918Z,7.53
2023-03-21T18:57:37.416Z,7.47
2023-03-21T19:00:43.750Z,4.40
2023-03-21T19:03:24.921Z,3.83
2023-03-21T19:06:00.448Z,2.53
2023-03-21T19:08:28.043Z,7.43
2023-03-21T19:10:59.558Z,6.47
2023-03-21T19:13:30.288Z,4.23
2023-03-21T19:15:57.717Z,5.03
2023-03-21T19:18:44.961Z,4.03
2023-03-21T19:21:13.483Z,4.30
2023-03-21T19:24:16.467Z,3.10
2023-03-21T19:26:28.468Z,3.40
2023-03-21T19:28:57.349Z,3.17
2023-03-21T19:31:25.128Z,9.67
2023-03-21T19:33:52.654Z,3.90
2023-03-21T19:36:22.897Z,4.70
2023-03-21T19:38:50.934Z,4.63
2023-03-21T19:41:18.346Z,4.40
2023-03-21T19:43:54.195Z,2.97
2023-03-21T19:46:25.153Z,4.23
2023-03-21T19:48:56.143Z,7.07
2023-03-21T19:51:28.773Z,3.90
2023-03-21T19:53:57.399Z,5.17
2023-03-21T19:56:27.268Z,3.57
2023-03-21T19:58:54.804Z,5.30
2023-03-21T20:01:24.101Z,5.80
2023-03-21T20:03:51.577Z,5.17
2023-03-21T20:06:19.369Z,6.43
2023-03-21T20:09:33.954Z,4.87
2023-03-21T20:11:34.618Z,5.37
2023-03-21T20:14:05.467Z,5.73
2023-03-21T20:16:36.392Z,4.60
2023-03-21T20:19:04.461Z,5.43
2023-03-21T20:21:40.121Z,6.00
2023-03-21T20:24:12.854Z,3.83
2023-03-21T20:26:40.736Z,6.17
2023-03-21T20:29:56.472Z,4.77
2023-03-21T20:31:57.463Z,3.50
2023-03-21T20:34:24.911Z,4.43
2023-03-21T20:36:53.169Z,3.73
2023-03-21T20:39:20.576Z,5.53
2023-03-21T20:41:47.992Z,3.73
2023-03-21T20:47:06.571Z,3.63
2023-03-21T20:49:34.003Z,4.30
2023-03-21T20:54:51.611Z,3.80
2023-03-21T20:57:20.092Z,3.17
2023-03-21T20:59:48.484Z,4.60
2023-03-21T21:02:17.192Z,6.10
2023-03-21T21:05:11.842Z,6.23
2023-03-21T21:07:32.263Z,7.23
2023-03-21T21:09:59.858Z,5.37
2023-03-21T21:12:27.629Z,3.90
2023-03-21T21:14:55.162Z,4.13
2023-03-21T21:17:46.684Z,5.50
2023-03-21T21:20:16.159Z,5.13
2023-03-21T21:22:46.058Z,6.80
2023-03-21T21:25:24.245Z,4.83
2023-03-21T21:27:54.657Z,4.70
2023-03-21T21:30:22.549Z,8.63
2023-03-21T21:32:51.488Z,5.63
2023-03-21T21:35:20.490Z,8.33
2023-03-21T21:37:47.985Z,5.73
2023-03-21T21:40:20.319Z,4.17
2023-03-21T21:42:47.810Z,3.93
2023-03-21T21:45:15.621Z,3.53
2023-03-21T21:47:44.432Z,5.33
2023-03-21T21:50:13.516Z,5.10
2023-03-21T21:52:43.471Z,7.00
2023-03-21T21:55:10.909Z,6.00
2023-03-21T21:57:39.685Z,6.33
2023-03-21T22:00:13.368Z,3.87
2023-03-21T22:02:42.480Z,5.47
2023-03-21T22:05:10.669Z,2.20
2023-03-21T22:07:39.372Z,5.80
2023-03-21T22:10:07.987Z,6.20
2023-03-21T22:12:35.486Z,3.53
2023-03-21T22:15:03.934Z,4.07
2023-03-21T22:17:31.662Z,4.93
2023-03-21T22:20:06.104Z,4.70
2023-03-21T22:22:33.942Z,5.50
2023-03-21T22:25:02.963Z,7.77
2023-03-21T22:27:30.459Z,6.17
2023-03-21T22:29:57.804Z,4.57
2023-03-21T22:32:25.490Z,5.03
2023-03-21T22:34:52.996Z,7.17
2023-03-21T22:37:20.329Z,6.57
2023-03-21T22:39:47.727Z,4.67
2023-03-21T22:42:16.514Z,4.80
2023-03-21T22:44:43.881Z,6.47
2023-03-21T22:47:11.673Z,5.27
2023-03-21T22:49:39.777Z,7.23
2023-03-21T22:52:07.297Z,5.90
2023-03-21T22:54:34.771Z,6.67
2023-03-21T22:57:02.131Z,6.77
2023-03-21T22:59:31.023Z,8.67
2023-03-21T23:01:58.866Z,7.20
2023-03-21T23:04:27.280Z,5.97
2023-03-21T23:06:55.278Z,5.83
2023-03-21T23:09:22.827Z,6.27
2023-03-21T23:11:50.246Z,7.80
2023-03-21T23:14:19.287Z,7.73
2023-03-21T23:16:47.979Z,7.93
2023-03-21T23:19:15.922Z,6.40
2023-03-21T23:21:44.283Z,8.53
2023-03-21T23:24:12.106Z,7.87
2023-03-21T23:26:39.493Z,7.73
2023-03-21T23:29:09.195Z,7.00
2023-03-21T23:31:36.919Z,7.37
2023-03-21T23:34:06.052Z,6.87
2023-03-21T23:36:33.511Z,5.30
2023-03-21T23:39:01.094Z,7.80
2023-03-21T23:41:28.493Z,6.17
2023-03-21T23:43:55.871Z,5.53
2023-03-21T23:46:23.286Z,4.60
2023-03-21T23:48:51.649Z,7.87
2023-03-21T23:51:20.443Z,6.17
2023-03-21T23:53:48.580Z,3.80
2023-03-21T23:56:17.051Z,6.80
2023-03-21T23:58:44.865Z,6.73
